Brackett, Wisconsin
Current Conditions -  °F | °C
As of 7:56 AM on Thursday 27 Nov 2014 (Local Time) from KEAU Reporting Station
Clear Clear  
Wind Chill: -11°   Ceiling: Unl
Heat Index: -1°   Visibility: 10mi
Dew Point: -7°   Wind: 5mph
Humidity: 75%   Direction: 310°NW
Pressure: 30.45"   Gusts: NA
Location:  44.7441°N, 91.2945°W
Report Text: KEAU 271356Z 31004KT 10SM CLR M18/M22 A3045 RMK AO2 SLP334 T11831217
Loading
Personal Weather Stations






























Interactive Weather Map New forecast layout! Learn more

10-Day Weather Forecast

Advertisements
Track Severe Weather on mobile